Data for 11/11/2015

Time Sea-Level Adjusted Pressure Absolute Pressure Temperature Relative Humidity Dew Point   
(mb) (inHg) (mb) (inHg) (C) (F) (%) (C) (F)
00:05 1017 30.03 846 24.98 -3.1 26.5 77 -6.6 20.1
00:10 1017 30.03 846 24.98 -3.1 26.5 77 -6.5 20.3
00:15 1017 30.03 846 24.98 -3.1 26.4 77 -6.5 20.2
00:20 1017 30.03 846 24.98 -3.5 25.8 79 -6.6 20.2
00:25 1017 30.03 846 24.98 -3.8 25.2 79 -7 19.4
00:30 1017 30.03 846 24.98 -3.8 25.2 77 -7.3 18.9
00:35 1017 30.03 846 24.98 -3.7 25.3 76 -7.4 18.7
00:40 1017 30.03 846 24.98 -3.6 25.5 75 -7.5 18.6
00:45 1017 30.03 846 24.98 -3.5 25.8 74 -7.4 18.6
00:50 1017 30.03 846 24.98 -3.7 25.4 74 -7.6 18.3
00:55 1017 30.03 846 24.98 -4.2 24.4 77 -7.7 18.1
01:00 1017 30.03 846 24.98 -4.6 23.8 78 -7.9 17.8
01:05 1017 30.03 846 24.98 -4.8 23.4 78 -8.1 17.5
01:10 1017 30.03 846 24.98 -5 23 78 -8.2 17.2
01:15 1017 30.03 846 24.98 -5.1 22.8 79 -8.3 17.1
01:20 1017 30.03 846 24.98 -5.1 22.9 79 -8.2 17.2
01:25 1017 30.03 846 24.98 -5 23 79 -8.1 17.3
01:30 1017 30.03 846 24.98 -4.8 23.3 78 -8.1 17.4
01:35 1017 30.03 846 24.98 -4.6 23.8 76 -8.1 17.4
01:40 1017 30.03 846 24.98 -4.4 24 78 -7.8 18
01:45 1017 30.03 846 24.98 -4.5 23.9 78 -7.8 17.9
01:50 1017 30.03 846 24.98 -4.6 23.8 81 -7.3 18.9
01:55 1017 30.03 846 24.98 -4.5 23.9 80 -7.4 18.8
02:00 1017 30.03 846 24.98 -4.3 24.3 77 -7.8 18
02:05 1017 30.03 846 24.98 -4 24.8 74 -8 17.7
02:10 1017 30.03 846 24.98 -4.7 23.5 79 -7.8 18
02:15 1017 30.03 846 24.98 -5.2 22.7 80 -8.1 17.4
02:20 1017 30.03 846 24.98 -5.1 22.8 80 -8.1 17.4
02:25 1017 30.03 846 24.98 -4.9 23.1 79 -8.1 17.5
02:30 1017 30.03 846 24.98 -4.9 23.2 79 -8 17.6
02:35 1017 30.03 846 24.98 -4.6 23.8 76 -8.1 17.4
02:40 1017 30.03 846 24.98 -4.1 24.6 75 -8 17.6
02:45 1017 30.03 846 24.98 -5 23 79 -8 17.5
02:50 1017 30.03 846 24.98 -5.5 22.1 82 -8.2 17.3
02:55 1017 30.03 846 24.98 -5.5 22.1 82 -8.2 17.3
03:00 1017 30.03 846 24.98 -5.4 22.3 81 -8.2 17.3
03:05 1017 30.03 846 24.98 -5.3 22.5 81 -8.1 17.4
03:10 1017 30.03 846 24.98 -5.3 22.5 80 -8.2 17.2
03:15 1017 30.03 846 24.98 -5.4 22.2 80 -8.3 17.1
03:20 1017 30.03 846 24.98 -5.7 21.7 81 -8.5 16.6
03:25 1017 30.03 846 24.98 -5.9 21.4 81 -8.6 16.6
03:30 1017 30.03 846 24.98 -5.9 21.4 81 -8.7 16.4
03:35 1017 30.03 847 25.01 -6.1 21.1 81 -8.8 16.2
03:40 1017 30.03 847 25.01 -6.2 20.8 82 -8.8 16.1
03:45 1017 30.03 847 25.01 -6.1 21 81 -8.9 15.9
03:50 1017 30.03 847 25.01 -5.9 21.4 80 -8.8 16.1
03:55 1017 30.03 847 25.01 -5.6 21.9 78 -8.8 16.1
04:00 1017 30.03 847 25.01 -5.7 21.7 78 -8.9 15.9
04:05 1017 30.03 847 25.01 -5.9 21.4 76 -9.4 15
04:10 1017 30.03 847 25.01 -6 21.2 76 -9.7 14.6
04:15 1017 30.03 847 25.01 -6.2 20.9 74 -10.1 13.8
04:20 1017 30.03 847 25.01 -6.1 21.1 72 -10.3 13.4
04:25 1017 30.03 847 25.01 -5.9 21.3 71 -10.3 13.5
04:30 1017 30.03 847 25.01 -5.5 22 70 -10.3 13.5
04:35 1017 30.03 847 25.01 -5.2 22.6 67 -10.3 13.4
04:40 1018 30.06 847 25.01 -4.9 23.2 66 -10.3 13.5
04:45 1018 30.06 847 25.01 -4.9 23.2 67 -10.2 13.7
04:50 1018 30.06 847 25.01 -5 23.1 66 -10.3 13.5
04:55 1018 30.06 847 25.01 -5 23 66 -10.3 13.4
05:00 1018 30.06 847 25.01 -5 23.1 67 -10.3 13.5
05:05 1018 30.06 847 25.01 -4.9 23.2 67 -10 14
05:10 1018 30.06 847 25.01 -4.4 24.1 64 -10.2 13.6
05:15 1018 30.06 847 25.01 -4.6 23.7 65 -10.3 13.5
05:20 1018 30.06 847 25.01 -4.8 23.3 64 -10.6 13
05:25 1018 30.06 847 25.01 -4.9 23.1 65 -10.5 13.1
05:30 1018 30.06 847 25.01 -4.9 23.2 65 -10.6 13
05:35 1018 30.06 847 25.01 -5 22.9 66 -10.5 13.1
05:40 1018 30.06 847 25.01 -5.4 22.4 67 -10.5 13.1
05:45 1018 30.06 847 25.01 -5.4 22.3 67 -10.6 12.9
05:50 1018 30.06 847 25.01 -5.8 21.6 69 -10.7 12.8
05:55 1018 30.06 847 25.01 -6.1 21 69 -11 12.2
06:00 1018 30.06 847 25.01 -6.3 20.6 70 -11 12.3
06:05 1018 30.06 847 25.01 -6.2 20.9 68 -11.2 11.9
06:10 1018 30.06 847 25.01 -6.1 21 68 -11.2 11.9
06:15 1018 30.06 847 25.01 -6.4 20.5 70 -11.1 12.1
06:20 1018 30.06 847 25.01 -6.6 20.2 70 -11.1 12
06:25 1018 30.06 847 25.01 -6.1 21.1 70 -10.6 12.9
06:30 1018 30.06 847 25.01 -6.1 20.9 69 -10.9 12.3
06:35 1018 30.06 847 25.01 -5.5 22.2 71 -10 14.1
06:40 1018 30.06 847 25.01 -6.1 21 77 -9.6 14.8
06:45 1018 30.06 847 25.01 -6.4 20.5 77 -9.8 14.3
06:50 1018 30.06 847 25.01 -6.5 20.3 74 -10.3 13.4
06:55 1018 30.06 847 25.01 -6.4 20.5 75 -10.2 13.6
07:00 1018 30.06 847 25.01 -6.3 20.6 77 -9.8 14.4
07:05 1018 30.06 847 25.01 -6 21.3 74 -9.9 14.1
07:10 1018 30.06 847 25.01 -5.7 21.7 73 -9.8 14.3
07:15 1018 30.06 847 25.01 -5.4 22.4 72 -9.7 14.5
07:20 1018 30.06 847 25.01 -5.5 22 73 -9.6 14.7
07:25 1018 30.06 847 25.01 -5.5 22 71 -10 14
07:30 1018 30.06 847 25.01 -5.7 21.8 73 -9.8 14.4
07:35 1018 30.06 847 25.01 -5.8 21.5 70 -10.4 13.2
07:40 1018 30.06 847 25.01 -7.3 18.9 74 -11.2 11.8
07:45 1018 30.06 847 25.01 -7 19.5 72 -11.2 11.9
07:50 1018 30.06 847 25.01 -6.7 20 70 -11.2 11.8
07:55 1018 30.06 847 25.01 -6.7 20 70 -11.3 11.7
08:00 1018 30.06 847 25.01 -6.6 20.1 69 -11.3 11.6
08:05 1018 30.06 847 25.01 -6.5 20.3 68 -11.4 11.4
08:10 1018 30.06 847 25.01 -6.9 19.5 73 -11 12.1
08:15 1018 30.06 847 25.01 -7.3 18.8 74 -11.3 11.7
08:20 1018 30.06 847 25.01 -6.8 19.7 75 -10.5 13.1
08:25 1018 30.06 847 25.01 -6.4 20.5 73 -10.5 13.1
08:30 1018 30.06 847 25.01 -6.3 20.6 73 -10.5 13.1
08:35 1018 30.06 847 25.01 -6.5 20.3 72 -10.7 12.8
08:40 1018 30.06 847 25.01 -6.6 20.1 74 -10.5 13.1
08:45 1018 30.06 847 25.01 -6.4 20.4 73 -10.5 13
08:50 1018 30.06 847 25.01 -5.8 21.5 70 -10.5 13.1
08:55 1018 30.06 847 25.01 -5.8 21.7 71 -10.2 13.6
09:00 1018 30.06 847 25.01 -6.3 20.6 74 -10.3 13.5
09:05 1018 30.06 848 25.04 -6.4 20.5 73 -10.6 13
09:10 1018 30.06 848 25.04 -6 21.2 72 -10.3 13.4
09:15 1018 30.06 848 25.04 -5.9 21.4 72 -10.2 13.6
09:20 1018 30.06 848 25.04 -6 21.3 73 -10.1 13.8
09:25 1018 30.06 848 25.04 -5.9 21.5 72 -10.2 13.7
09:30 1018 30.06 848 25.04 -5.7 21.7 74 -9.7 14.5
09:35 1018 30.06 848 25.04 -5.8 21.6 72 -10 14
09:40 1018 30.06 848 25.04 -5.7 21.8 72 -10 14
09:45 1018 30.06 848 25.04 -5.5 22 72 -9.7 14.5
09:50 1019 30.09 848 25.04 -5.1 22.8 68 -10 13.9
09:55 1019 30.09 848 25.04 -4.4 24 67 -9.6 14.7
10:00 1019 30.09 848 25.04 -4 24.8 66 -9.4 15.1
10:05 1019 30.09 848 25.04 -3.7 25.4 65 -9.2 15.4
10:10 1019 30.09 848 25.04 -3.7 25.4 66 -9.1 15.6
10:15 1019 30.09 848 25.04 -3.8 25.2 67 -9.1 15.7
10:20 1019 30.09 848 25.04 -3.7 25.4 67 -8.9 15.9
10:25 1019 30.09 848 25.04 -3.1 26.3 67 -8.4 16.8
10:30 1019 30.09 848 25.04 -2.6 27.4 63 -8.7 16.4
10:35 1019 30.09 848 25.04 -2.6 27.4 63 -8.6 16.5
10:40 1019 30.09 848 25.04 -2.3 27.9 61 -8.9 16
10:45 1019 30.09 848 25.04 -2.6 27.4 64 -8.6 16.6
10:50 1019 30.09 848 25.04 -3 26.6 65 -8.6 16.5
10:55 1019 30.09 848 25.04 -2.9 26.7 62 -9.2 15.4
11:00 1019 30.09 848 25.04 -2.8 26.9 64 -8.8 16.1
11:05 1019 30.09 848 25.04 -2.7 27.2 62 -8.9 15.9
11:10 1019 30.09 848 25.04 -1.9 28.5 58 -9.2 15.5
11:15 1019 30.09 848 25.04 -0.9 30.4 51 -9.9 14.2
11:20 1019 30.09 848 25.04 -0.1 31.8 49 -9.5 14.9
11:25 1019 30.09 848 25.04 0.3 32.5 48 -9.6 14.8
11:30 1019 30.09 848 25.04 0.7 33.3 47 -9.2 15.4
11:35 1019 30.09 848 25.04 0.7 33.3 50 -8.5 16.6
11:40 1019 30.09 848 25.04 0.6 33.2 47 -9.4 15
11:45 1019 30.09 848 25.04 0.9 33.6 46 -9.6 14.8
11:50 1018 30.06 848 25.04 0.6 33.1 50 -8.8 16.2
11:55 1018 30.06 848 25.04 -0.2 31.6 48 -9.8 14.3
12:00 1018 30.06 848 25.04 -0.3 31.5 51 -9.2 15.5
12:05 1018 30.06 848 25.04 -0.3 31.5 50 -9.5 14.9
12:10 1018 30.06 848 25.04 0.1 32.2 48 -9.6 14.7
12:15 1018 30.06 848 25.04 0.7 33.2 48 -9.2 15.5
12:20 1018 30.06 848 25.04 0.8 33.5 51 -8.3 17.1
12:25 1018 30.06 847 25.01 0.5 32.9 51 -8.4 16.9
12:30 1018 30.06 847 25.01 0.8 33.5 50 -8.3 17
12:35 1018 30.06 847 25.01 0.6 33 50 -8.6 16.5
12:40 1018 30.06 847 25.01 0.3 32.5 50 -9 15.8
12:45 1018 30.06 847 25.01 0.5 32.9 49 -8.9 15.9
12:50 1018 30.06 847 25.01 0.6 33.1 49 -8.9 16
12:55 1018 30.06 847 25.01 0.5 32.9 50 -8.8 16.2
13:00 1018 30.06 847 25.01 0.6 33 50 -8.6 16.6
13:05 1018 30.06 847 25.01 0.9 33.6 51 -8.1 17.5
13:10 1018 30.06 847 25.01 1 33.9 52 -7.9 17.9
13:15 1018 30.06 847 25.01 0.9 33.7 51 -8.1 17.4
13:20 1018 30.06 847 25.01 0.7 33.3 50 -8.6 16.6
13:25 1018 30.06 847 25.01 0.8 33.4 51 -8.2 17.2
13:30 1018 30.06 847 25.01 0.9 33.5 50 -8.5 16.7
13:35 1018 30.06 847 25.01 0.6 33.1 51 -8.3 17
13:40 1018 30.06 847 25.01 0.1 32.2 52 -8.5 16.6
13:45 1018 30.06 847 25.01 0.4 32.7 51 -8.6 16.5
13:50 1018 30.06 847 25.01 0.4 32.8 51 -8.7 16.4
13:55 1018 30.06 847 25.01 0.2 32.3 52 -8.5 16.7
14:00 1018 30.06 847 25.01 0.1 32.3 52 -8.5 16.7
14:05 1018 30.06 847 25.01 0.4 32.7 53 -8.2 17.2
14:10 1018 30.06 847 25.01 0.5 32.9 53 -8 17.5
14:15 1018 30.06 847 25.01 0.6 33.1 52 -8.1 17.5
14:20 1018 30.06 847 25.01 0.6 33.1 52 -8.2 17.3
14:25 1018 30.06 847 25.01 0.4 32.8 55 -7.6 18.3
14:30 1018 30.06 847 25.01 0 32 54 -8.1 17.4
14:35 1018 30.06 847 25.01 -0.6 30.8 55 -8.7 16.4
14:40 1018 30.06 847 25.01 -1 30.2 55 -8.9 16
14:45 1018 30.06 847 25.01 -0.8 30.6 53 -9.2 15.5
14:50 1018 30.06 847 25.01 -0.4 31.3 50 -9.5 15
14:55 1018 30.06 847 25.01 0.2 32.3 49 -9.4 15.1
15:00 1018 30.06 847 25.01 0.3 32.5 49 -9.3 15.3
15:05 1018 30.06 847 25.01 0.3 32.6 49 -9.2 15.5
15:10 1018 30.06 847 25.01 0.6 33.1 48 -9.1 15.5
15:15 1018 30.06 847 25.01 0.7 33.3 47 -9.3 15.3
15:20 1018 30.06 847 25.01 0.8 33.5 46 -9.5 14.9
15:25 1018 30.06 847 25.01 0.9 33.7 47 -9.1 15.6
15:30 1018 30.06 847 25.01 1.1 33.9 47 -8.9 15.9
15:35 1018 30.06 847 25.01 1.2 34.1 49 -8.5 16.7
15:40 1018 30.06 847 25.01 1.3 34.3 47 -8.9 16
15:45 1018 30.06 847 25.01 1.4 34.6 47 -8.7 16.4
15:50 1018 30.06 847 25.01 1.6 34.8 47 -8.5 16.7
15:55 1018 30.06 847 25.01 1.6 35 47 -8.5 16.7
16:00 1018 30.06 847 25.01 2 35.6 44 -9.1 15.6
16:05 1017 30.03 847 25.01 2.4 36.2 42 -9.4 15
16:10 1017 30.03 847 25.01 2.4 36.3 43 -8.9 16
16:15 1017 30.03 847 25.01 2.1 35.9 43 -9.1 15.7
16:20 1017 30.03 847 25.01 2.2 35.9 43 -9.2 15.5
16:25 1017 30.03 847 25.01 2.3 36.1 44 -8.7 16.3
16:30 1017 30.03 847 25.01 2.4 36.3 45 -8.3 17
16:35 1018 30.06 847 25.01 2.5 36.4 47 -7.8 18
16:40 1018 30.06 847 25.01 2.5 36.4 44 -8.5 16.7
16:45 1018 30.06 847 25.01 2.5 36.5 47 -7.7 18.1
16:50 1018 30.06 847 25.01 2.7 36.8 48 -7.3 18.8
16:55 1018 30.06 847 25.01 2.8 37 49 -6.8 19.7
17:00 1017 30.03 847 25.01 3.3 37.9 45 -7.5 18.5
17:05 1018 30.06 847 25.01 3.8 38.8 44 -7.3 18.8
17:10 1017 30.03 847 25.01 3.8 38.8 45 -7.2 19.1
17:15 1017 30.03 847 25.01 3.8 38.9 44 -7.3 18.9
17:20 1017 30.03 847 25.01 3.8 38.8 46 -6.8 19.7
17:25 1017 30.03 847 25.01 3.7 38.6 48 -6.4 20.4
17:30 1017 30.03 847 25.01 3.4 38.2 49 -6.3 20.7
17:35 1017 30.03 847 25.01 3.4 38.1 47 -6.9 19.6
17:40 1017 30.03 847 25.01 3.6 38.5 46 -7.1 19.3
17:45 1017 30.03 847 25.01 3.7 38.7 46 -6.8 19.8
17:50 1017 30.03 847 25.01 3.7 38.7 46 -6.9 19.5
17:55 1017 30.03 847 25.01 3.7 38.6 45 -7.1 19.1
18:00 1017 30.03 847 25.01 3.6 38.5 47 -6.6 20.1
18:05 1017 30.03 847 25.01 3.5 38.3 47 -6.9 19.6
18:10 1017 30.03 847 25.01 3.6 38.5 46 -7.1 19.3
18:15 1018 30.06 847 25.01 3.6 38.5 48 -6.5 20.3
18:20 1018 30.06 847 25.01 3.3 38 48 -6.6 20.1
18:25 1018 30.06 847 25.01 3.4 38.1 49 -6.4 20.4
18:30 1018 30.06 847 25.01 3.3 37.9 49 -6.4 20.6
18:35 1018 30.06 847 25.01 3.2 37.7 50 -6.1 21
18:40 1018 30.06 847 25.01 3.1 37.7 50 -6.2 20.8
18:45 1018 30.06 847 25.01 3.2 37.8 51 -6 21.2
18:50 1018 30.06 847 25.01 3.1 37.6 49 -6.7 20
18:55 1018 30.06 847 25.01 3.3 37.9 50 -6.1 20.9
19:00 1018 30.06 847 25.01 3.1 37.6 50 -6.2 20.8
19:05 1018 30.06 847 25.01 3.1 37.5 51 -6.2 20.8
19:10 1018 30.06 847 25.01 3.1 37.5 50 -6.4 20.4
19:15 1018 30.06 847 25.01 3 37.4 50 -6.5 20.4
19:20 1018 30.06 847 25.01 3 37.3 51 -6.1 21
19:25 1018 30.06 847 25.01 2.9 37.1 52 -6.1 21
19:30 1018 30.06 847 25.01 2.7 36.9 51 -6.4 20.5
19:35 1018 30.06 847 25.01 2.7 36.8 51 -6.5 20.3
19:40 1018 30.06 847 25.01 2.8 37 51 -6.4 20.4
19:45 1018 30.06 847 25.01 2.7 36.9 50 -6.8 19.7
19:50 1018 30.06 847 25.01 2.8 37 50 -6.6 20.2
19:55 1018 30.06 847 25.01 2.8 37 52 -6.2 20.9
20:00 1018 30.06 848 25.04 2.7 36.9 52 -6.2 20.8
20:05 1018 30.06 848 25.04 2.7 36.8 53 -5.9 21.4
20:10 1018 30.06 848 25.04 2.5 36.5 54 -5.9 21.3
20:15 1019 30.09 848 25.04 2.5 36.5 54 -6 21.2
20:20 1019 30.09 848 25.04 2.4 36.4 54 -5.9 21.4
20:25 1019 30.09 848 25.04 2.4 36.3 54 -6 21.2
20:30 1019 30.09 848 25.04 2.4 36.3 54 -5.9 21.3
20:35 1019 30.09 848 25.04 2.3 36.2 54 -6 21.2
20:40 1019 30.09 848 25.04 2.3 36.1 54 -6.1 21
20:45 1019 30.09 848 25.04 2.4 36.2 57 -5.4 22.3
20:50 1019 30.09 849 25.07 2.1 35.7 61 -4.6 23.7
20:55 1020 30.12 849 25.07 1.6 34.8 65 -4.3 24.3
21:00 1020 30.12 849 25.07 1.2 34.1 71 -3.5 25.7
21:05 1020 30.12 849 25.07 0.8 33.5 74 -3.3 26
21:10 1020 30.12 849 25.07 0.5 33 76 -3.1 26.4
21:15 1020 30.12 849 25.07 0.3 32.6 76 -3.4 25.9
21:20 1020 30.12 849 25.07 0.3 32.5 76 -3.5 25.7
21:25 1020 30.12 849 25.07 0.2 32.4 76 -3.5 25.7
21:30 1020 30.12 849 25.07 0.2 32.3 76 -3.6 25.5
21:35 1020 30.12 850 25.1 0.1 32.2 76 -3.6 25.6
21:40 1021 30.15 850 25.1 0.1 32.2 77 -3.4 25.8
21:45 1021 30.15 850 25.1 0 32 78 -3.4 25.9
21:50 1021 30.15 850 25.1 -0.1 31.9 78 -3.5 25.7
21:55 1021 30.15 850 25.1 -0.1 31.9 78 -3.4 25.9
22:00 1021 30.15 850 25.1 -0.1 31.8 79 -3.3 26.1
22:05 1021 30.15 850 25.1 -0.2 31.7 79 -3.3 26
22:10 1021 30.15 850 25.1 -0.2 31.6 79 -3.4 25.9
22:15 1021 30.15 850 25.1 -0.3 31.4 80 -3.4 25.9
22:20 1021 30.15 850 25.1 -0.4 31.3 80 -3.5 25.7
22:25 1021 30.15 850 25.1 -0.5 31.2 79 -3.6 25.5
22:30 1021 30.15 850 25.1 -0.5 31.1 80 -3.5 25.6
22:35 1021 30.15 850 25.1 -0.5 31 80 -3.6 25.5
22:40 1021 30.15 850 25.1 -0.5 31.1 80 -3.5 25.8
22:45 1021 30.15 850 25.1 -0.5 31.1 79 -3.6 25.5
22:50 1021 30.15 850 25.1 -0.4 31.3 78 -3.8 25.2
22:55 1021 30.15 850 25.1 -0.2 31.6 77 -3.8 25.1
23:00 1021 30.15 850 25.1 -0.4 31.4 79 -3.6 25.6
23:05 1021 30.15 850 25.1 -0.6 31 80 -3.7 25.4
23:10 1021 30.15 850 25.1 -0.5 31 79 -3.7 25.4
23:15 1021 30.15 850 25.1 -0.5 31.1 79 -3.7 25.3
23:20 1021 30.15 850 25.1 -0.3 31.4 76 -4 24.8
23:25 1021 30.15 850 25.1 -0.1 31.9 74 -4.2 24.4
23:30 1021 30.15 851 25.13 0.1 32.2 72 -4.4 24.2
23:35 1021 30.15 851 25.13 0.2 32.3 72 -4.3 24.2
23:40 1021 30.15 851 25.13 0.2 32.3 72 -4.4 24.1
23:45 1021 30.15 851 25.13 0.1 32.2 71 -4.5 23.8
23:50 1021 30.15 851 25.13 0.1 32.2 70 -4.7 23.6
23:55 1021 30.15 851 25.13 0.1 32.2 70 -4.8 23.4
24:00 1021 30.15 851 25.13 0.1 32.1 70 -4.8 23.4